Terminal Aerodrome Forecast
Issued by NWS Wilmington, OH

Home | Current Version | Previous Version | Text Only | Print | Product List | Glossary On
Versions: 1 2 3 4 5 6 7 8 9 10 11 12 13 14 15 16 17 18 19
555
FTUS41 KILN 232337
TAFCMH
TAF
KCMH 232337Z 2400/2424 19006KT P6SM FEW050 BKN250
     FM240100 14003KT P6SM BKN250
     FM241300 17006KT P6SM SCT050 BKN100
     FM242000 20010KT P6SM BKN050=

USA.gov is the U.S. government's official web portal to all federal, state and local government web resources and services.